createdAt,value
2018-12-24T00:01:39.359Z,98458.05
2018-12-24T00:04:09.233Z,98459.33
2018-12-24T00:06:39.051Z,98460.63
2018-12-24T00:09:08.965Z,98462.37
2018-12-24T00:11:38.823Z,98468.91
2018-12-24T00:14:08.777Z,98464.62
2018-12-24T00:16:38.683Z,98466.79
2018-12-24T00:19:08.541Z,98469.43
2018-12-24T00:21:38.365Z,98466.41
2018-12-24T00:24:08.270Z,98471.21
2018-12-24T00:26:38.219Z,98471.64
2018-12-24T00:29:08.066Z,98470.77
2018-12-24T00:31:37.883Z,98467.32
2018-12-24T00:34:07.842Z,98461.70
2018-12-24T00:36:37.744Z,98460.81
2018-12-24T00:39:26.474Z,98457.80
2018-12-24T00:41:56.278Z,98452.13
2018-12-24T00:44:45.089Z,98450.44
2018-12-24T00:47:15.024Z,98446.98
2018-12-24T00:49:44.855Z,98434.45
2018-12-24T00:52:14.770Z,98421.03
2018-12-24T00:54:44.620Z,98418.84
2018-12-24T00:57:14.459Z,98411.45
2018-12-24T00:59:44.373Z,98408.83
2018-12-24T01:02:14.322Z,98404.11
2018-12-24T01:04:44.130Z,98393.27
2018-12-24T01:07:13.939Z,98384.17
2018-12-24T01:09:43.890Z,98375.09
2018-12-24T01:12:13.851Z,98366.45
2018-12-24T01:14:43.723Z,98359.03
2018-12-24T01:17:13.565Z,98356.02
2018-12-24T01:19:43.513Z,98353.82
2018-12-24T01:22:13.464Z,98349.89
2018-12-24T01:24:43.319Z,98344.69
2018-12-24T01:27:13.137Z,98331.66
2018-12-24T01:29:43.084Z,98335.10
2018-12-24T01:32:12.998Z,98335.95
2018-12-24T01:34:42.817Z,98333.73
2018-12-24T01:37:12.646Z,98332.42
2018-12-24T01:39:42.563Z,98329.38
2018-12-24T01:42:12.510Z,98324.92
2018-12-24T01:44:42.405Z,98325.73
2018-12-24T01:47:12.270Z,98321.39
2018-12-24T01:49:42.184Z,98314.38
2018-12-24T01:52:12.142Z,98318.67
2018-12-24T01:54:42.001Z,98306.92
2018-12-24T01:57:11.794Z,98299.92
2018-12-24T01:59:41.749Z,98291.71
2018-12-24T02:02:11.704Z,98285.09
2018-12-24T02:04:41.564Z,98280.74
2018-12-24T02:07:11.416Z,98263.81
2018-12-24T02:09:41.386Z,98256.00
2018-12-24T02:12:11.192Z,98242.96
2018-12-24T02:14:41.182Z,98234.69
2018-12-24T02:17:11.092Z,98228.16
2018-12-24T02:20:01.219Z,98220.72
2018-12-24T02:22:31.074Z,98215.04
2018-12-24T02:25:00.979Z,98214.66
2018-12-24T02:27:30.936Z,98205.55
2018-12-24T02:30:00.764Z,98203.83
2018-12-24T02:32:30.628Z,98200.39
2018-12-24T02:35:00.537Z,98206.92
2018-12-24T02:37:30.492Z,98206.86
2018-12-24T02:40:00.340Z,98197.56
2018-12-24T02:42:30.156Z,98189.02
2018-12-24T02:45:00.252Z,98189.52
2018-12-24T02:47:30.087Z,98192.13
2018-12-24T02:49:59.896Z,98186.08
2018-12-24T02:52:29.845Z,98179.64
2018-12-24T02:54:59.657Z,98170.55
2018-12-24T02:57:29.477Z,98163.24
2018-12-24T02:59:59.393Z,98167.58
2018-12-24T03:02:29.297Z,98162.73
2018-12-24T03:04:59.147Z,98160.23
2018-12-24T03:07:29.002Z,98157.50
2018-12-24T03:09:58.919Z,98151.09
2018-12-24T03:12:28.878Z,98157.63
2018-12-24T03:14:58.742Z,98148.15
2018-12-24T03:17:28.559Z,98140.41
2018-12-24T03:19:58.507Z,98135.26
2018-12-24T03:22:28.475Z,98121.42
2018-12-24T03:25:17.154Z,98113.63
2018-12-24T03:27:46.978Z,98114.59
2018-12-24T03:30:16.926Z,98112.02
2018-12-24T03:32:46.736Z,98110.17
2018-12-24T03:35:16.651Z,98117.08
2018-12-24T03:37:46.580Z,98118.01
2018-12-24T03:40:16.402Z,98116.25
2018-12-24T03:42:46.270Z,98116.77
2018-12-24T03:45:16.197Z,98104.59
2018-12-24T03:47:46.294Z,98105.95
2018-12-24T03:50:16.075Z,98101.66
2018-12-24T03:52:46.085Z,98095.58
2018-12-24T03:55:16.020Z,98096.88
2018-12-24T03:57:45.921Z,98095.97
2018-12-24T04:00:15.778Z,98107.28
2018-12-24T04:02:45.587Z,98111.52
2018-12-24T04:05:15.543Z,98111.49
2018-12-24T04:07:45.482Z,98108.95
2018-12-24T04:10:15.287Z,98103.81
2018-12-24T04:12:45.323Z,98110.63
2018-12-24T04:15:15.167Z,98099.39
2018-12-24T04:17:44.980Z,98099.38
2018-12-24T04:20:14.925Z,98101.58
2018-12-24T04:22:44.855Z,98104.66
2018-12-24T04:25:14.681Z,98102.53
2018-12-24T04:27:44.543Z,98099.09
2018-12-24T04:30:14.461Z,98097.33
2018-12-24T04:32:44.415Z,98089.55
2018-12-24T04:35:14.227Z,98084.32
2018-12-24T04:37:44.104Z,98087.41
2018-12-24T04:40:14.002Z,98083.81
2018-12-24T04:42:43.929Z,98070.81
2018-12-24T04:45:13.790Z,98065.58
2018-12-24T04:47:43.646Z,98061.70
2018-12-24T04:50:13.555Z,98054.89
2018-12-24T04:52:43.356Z,98049.17
2018-12-24T04:55:13.318Z,98037.94
2018-12-24T04:57:43.235Z,98033.97
2018-12-24T05:00:13.034Z,98025.80
2018-12-24T05:02:42.886Z,98009.84
2018-12-24T05:05:12.848Z,98023.86
2018-12-24T05:07:42.752Z,98013.31
2018-12-24T05:10:12.629Z,98004.22
2018-12-24T05:12:42.463Z,98008.71
2018-12-24T05:15:12.372Z,98005.59
2018-12-24T05:17:42.338Z,97999.98
2018-12-24T05:20:12.162Z,97990.02
2018-12-24T05:22:42.025Z,97991.22
2018-12-24T05:25:11.944Z,97986.48
2018-12-24T05:27:41.912Z,97979.22
2018-12-24T05:30:11.750Z,97965.80
2018-12-24T05:32:41.706Z,97949.39
2018-12-24T05:35:11.522Z,97947.73
2018-12-24T05:37:41.431Z,97942.58
2018-12-24T05:40:11.323Z,97946.06
2018-12-24T05:42:41.282Z,97942.20
2018-12-24T05:45:11.099Z,97943.13
2018-12-24T05:47:40.947Z,97943.94
2018-12-24T05:50:10.859Z,97952.20
2018-12-24T05:52:40.818Z,97951.39
2018-12-24T05:55:10.686Z,97964.82
2018-12-24T05:57:40.536Z,97970.47
2018-12-24T06:00:10.449Z,97986.50
2018-12-24T06:02:40.393Z,97979.59
2018-12-24T06:05:10.328Z,97970.48
2018-12-24T06:07:40.175Z,97959.72
2018-12-24T06:10:10.208Z,97959.75
2018-12-24T06:12:40.027Z,97966.27
2018-12-24T06:18:18.833Z,97953.22
2018-12-24T06:20:48.368Z,97959.66
2018-12-24T06:25:52.452Z,97958.38
2018-12-24T06:28:21.900Z,97952.20
2018-12-24T06:30:51.446Z,97966.50
2018-12-24T06:33:20.985Z,97974.32
2018-12-24T06:35:50.382Z,97976.31
2018-12-24T06:38:19.814Z,97971.97
2018-12-24T06:40:49.343Z,97968.91
2018-12-24T06:43:18.825Z,97971.00
2018-12-24T06:45:48.258Z,97952.29
2018-12-24T06:51:25.123Z,97954.83
2018-12-24T06:53:54.626Z,97945.89
2018-12-24T06:56:24.078Z,97940.77
2018-12-24T06:58:53.582Z,97941.59
2018-12-24T07:01:23.030Z,97933.16
2018-12-24T07:03:52.430Z,97925.75
2018-12-24T07:06:21.961Z,97928.95
2018-12-24T07:08:51.513Z,97925.30
2018-12-24T07:11:20.910Z,97916.17
2018-12-24T07:13:50.295Z,97925.27
2018-12-24T07:16:19.832Z,97918.55
2018-12-24T07:18:49.324Z,97912.72
2018-12-24T07:21:18.771Z,97922.56
2018-12-24T07:23:48.152Z,97910.25
2018-12-24T07:26:17.725Z,97914.34
2018-12-24T07:28:47.299Z,97901.09
2018-12-24T07:31:17.891Z,97898.30
2018-12-24T07:33:47.881Z,97893.25
2018-12-24T07:36:17.544Z,97881.23
2018-12-24T07:38:46.924Z,97870.95
2018-12-24T07:41:16.458Z,97868.59
2018-12-24T07:43:45.956Z,97869.92
2018-12-24T07:46:15.402Z,97860.29
2018-12-24T07:48:44.806Z,97859.43
2018-12-24T07:51:14.344Z,97849.73
2018-12-24T07:53:43.873Z,97837.73
2018-12-24T07:56:13.266Z,97830.61
2018-12-24T07:58:42.667Z,97828.11
2018-12-24T08:01:12.200Z,97825.25
2018-12-24T08:03:41.694Z,97819.34
2018-12-24T08:06:11.142Z,97813.34
2018-12-24T08:08:42.051Z,97801.58
2018-12-24T08:11:11.595Z,97790.06
2018-12-24T08:13:41.148Z,97782.80
2018-12-24T08:16:10.593Z,97765.38
2018-12-24T08:18:40.086Z,97752.61
2018-12-24T08:21:09.484Z,97760.02
2018-12-24T08:23:38.928Z,97752.25
2018-12-24T08:26:08.447Z,97742.50
2018-12-24T08:28:37.944Z,97735.34
2018-12-24T08:31:07.383Z,97735.06
2018-12-24T08:33:36.779Z,97732.73
2018-12-24T08:36:06.336Z,97728.79
2018-12-24T08:38:35.830Z,97717.56
2018-12-24T08:41:05.231Z,97710.45
2018-12-24T08:43:34.739Z,97696.44
2018-12-24T08:46:04.262Z,97690.37
2018-12-24T08:48:33.796Z,97680.52
2018-12-24T08:51:03.229Z,97673.61
2018-12-24T08:53:32.615Z,97676.05
2018-12-24T08:56:02.097Z,97671.84
2018-12-24T08:58:31.640Z,97681.41
2018-12-24T09:01:19.923Z,97682.74
2018-12-24T09:03:49.362Z,97686.70
2018-12-24T09:06:18.904Z,97681.84
2018-12-24T09:08:48.388Z,97674.22
2018-12-24T09:11:17.835Z,97678.34
2018-12-24T09:13:47.240Z,97682.17
2018-12-24T09:16:16.782Z,97682.91
2018-12-24T09:18:46.310Z,97673.93
2018-12-24T09:21:15.755Z,97664.59
2018-12-24T09:23:45.207Z,97663.41
2018-12-24T09:26:14.714Z,97643.70
2018-12-24T09:28:44.261Z,97648.73
2018-12-24T09:31:14.085Z,97652.76
2018-12-24T09:33:43.518Z,97653.84
2018-12-24T09:36:13.070Z,97647.12
2018-12-24T09:38:42.517Z,97644.88
2018-12-24T09:41:12.138Z,97638.87
2018-12-24T09:43:41.624Z,97637.28
2018-12-24T09:46:11.058Z,97638.28
2018-12-24T09:48:40.460Z,97632.38
2018-12-24T09:51:09.995Z,97611.47
2018-12-24T09:53:39.511Z,97603.77
2018-12-24T09:56:12.339Z,97581.73
2018-12-24T09:58:40.073Z,97569.66
2018-12-24T10:01:09.610Z,97563.70
2018-12-24T10:03:48.791Z,97564.25
2018-12-24T10:06:38.369Z,97562.37
2018-12-24T10:09:11.318Z,97546.65
2018-12-24T10:11:40.865Z,97539.19
2018-12-24T10:14:10.372Z,97527.20
2018-12-24T10:16:39.770Z,97522.66
2018-12-24T10:19:09.304Z,97488.42
2018-12-24T10:21:38.708Z,97470.72
2018-12-24T10:24:08.144Z,97459.15
2018-12-24T10:26:37.677Z,97458.91
2018-12-24T10:29:07.222Z,97462.75
2018-12-24T10:31:36.632Z,97469.84
2018-12-24T10:34:06.041Z,97482.05
2018-12-24T10:36:35.601Z,97477.73
2018-12-24T10:42:19.854Z,97457.36
2018-12-24T10:44:49.264Z,97439.58
2018-12-24T10:47:18.810Z,97420.13
2018-12-24T10:49:48.288Z,97426.12
2018-12-24T10:52:17.736Z,97423.72
2018-12-24T10:54:47.128Z,97415.65
2018-12-24T10:57:16.680Z,97411.24
2018-12-24T10:59:46.086Z,97393.87
2018-12-24T11:02:15.630Z,97393.87
2018-12-24T11:04:45.132Z,97377.67
2018-12-24T11:07:14.562Z,97377.94
2018-12-24T11:09:44.039Z,97383.48
2018-12-24T11:12:13.585Z,97391.94
2018-12-24T11:14:43.077Z,97364.95
2018-12-24T11:17:12.519Z,97376.41
2018-12-24T11:19:41.912Z,97374.48
2018-12-24T11:22:11.409Z,97362.66
2018-12-24T11:24:40.946Z,97353.42
2018-12-24T11:27:10.472Z,97336.20
2018-12-24T11:29:39.890Z,97339.81
2018-12-24T11:32:09.440Z,97338.88
2018-12-24T11:34:38.943Z,97326.27
2018-12-24T11:37:10.352Z,97318.45
2018-12-24T11:39:39.656Z,97322.66
2018-12-24T11:42:09.088Z,97321.44
2018-12-24T11:44:38.541Z,97300.79
2018-12-24T11:47:08.042Z,97295.11
2018-12-24T11:49:37.584Z,97281.50
2018-12-24T11:52:07.480Z,97284.94
2018-12-24T11:54:36.902Z,97287.41
2018-12-24T11:57:06.401Z,97280.05
2018-12-24T11:59:35.943Z,97281.83
2018-12-24T12:02:09.882Z,97269.86
2018-12-24T12:04:36.563Z,97270.20
2018-12-24T12:07:06.041Z,97265.67
2018-12-24T12:09:54.491Z,97258.23
2018-12-24T12:12:23.959Z,97247.45
2018-12-24T12:14:53.350Z,97232.97
2018-12-24T12:17:22.888Z,97223.50
2018-12-24T12:19:52.285Z,97228.79
2018-12-24T12:22:21.833Z,97234.13
2018-12-24T12:24:51.321Z,97247.78
2018-12-24T12:27:20.749Z,97256.75
2018-12-24T12:29:50.142Z,97245.88
2018-12-24T12:32:19.683Z,97242.34
2018-12-24T12:34:49.186Z,97261.17
2018-12-24T12:37:18.641Z,97265.30
2018-12-24T12:39:48.025Z,97259.09
2018-12-24T12:42:17.815Z,97264.95
2018-12-24T12:44:47.325Z,97254.98
2018-12-24T12:47:16.782Z,97252.21
2018-12-24T12:49:46.227Z,97258.23
2018-12-24T12:52:15.805Z,97264.83
2018-12-24T12:54:45.348Z,97263.51
2018-12-24T12:57:14.735Z,97264.64
2018-12-24T12:59:44.282Z,97267.54
2018-12-24T13:02:13.682Z,97268.51
2018-12-24T13:04:43.113Z,97261.36
2018-12-24T13:07:12.615Z,97257.02
2018-12-24T13:09:42.155Z,97265.23
2018-12-24T13:12:11.564Z,97272.19
2018-12-24T13:14:40.971Z,97263.32
2018-12-24T13:17:10.462Z,97257.51
2018-12-24T13:19:40.051Z,97252.47
2018-12-24T13:22:09.446Z,97239.75
2018-12-24T13:24:38.885Z,97212.63
2018-12-24T13:27:08.423Z,97190.41
2018-12-24T13:29:37.940Z,97175.52
2018-12-24T13:32:07.375Z,97183.25
2018-12-24T13:34:36.768Z,97183.84
2018-12-24T13:37:06.310Z,97196.82
2018-12-24T13:39:35.714Z,97194.20
2018-12-24T13:42:05.245Z,97197.33
2018-12-24T13:44:34.784Z,97188.30
2018-12-24T13:49:52.592Z,97206.98
2018-12-24T13:52:22.119Z,97219.87
2018-12-24T13:54:51.668Z,97216.06
2018-12-24T13:57:21.068Z,97214.34
2018-12-24T13:59:50.449Z,97209.09
2018-12-24T14:02:19.997Z,97194.13
2018-12-24T14:04:49.486Z,97182.42
2018-12-24T14:07:18.925Z,97186.67
2018-12-24T14:09:48.320Z,97182.19
2018-12-24T14:12:17.854Z,97186.36
2018-12-24T14:14:47.385Z,97191.53
2018-12-24T14:17:18.889Z,97198.13
2018-12-24T14:19:48.287Z,97190.97
2018-12-24T14:22:17.817Z,97179.95
2018-12-24T14:24:47.313Z,97180.11
2018-12-24T14:27:16.754Z,97170.48
2018-12-24T14:29:46.351Z,97170.55
2018-12-24T14:32:15.993Z,97175.63
2018-12-24T14:35:04.456Z,97177.94
2018-12-24T14:37:33.973Z,97167.14
2018-12-24T14:40:06.907Z,97166.65
2018-12-24T14:42:36.422Z,97162.09
2018-12-24T14:45:06.395Z,97143.95
2018-12-24T14:47:35.844Z,97138.65
2018-12-24T14:50:05.528Z,97132.19
2018-12-24T14:52:35.055Z,97127.03
2018-12-24T15:12:20.472Z,97113.78
2018-12-24T15:14:50.140Z,97099.73
2018-12-24T15:17:19.954Z,97096.03
2018-12-24T15:19:49.560Z,97093.86
2018-12-24T15:22:19.323Z,97086.01
2018-12-24T15:24:49.167Z,97091.17
2018-12-24T15:27:18.986Z,97083.52
2018-12-24T15:29:48.761Z,97066.00
2018-12-24T15:32:19.811Z,97077.38
2018-12-24T15:34:49.630Z,97081.34
2018-12-24T15:37:19.271Z,97071.77
2018-12-24T15:39:48.882Z,97071.72
2018-12-24T15:42:18.585Z,97075.94
2018-12-24T15:44:48.325Z,97073.16
2018-12-24T15:47:18.061Z,97079.92
2018-12-24T15:49:47.695Z,97076.61
2018-12-24T15:52:17.525Z,97079.16
2018-12-24T15:54:46.964Z,97083.70
2018-12-24T15:57:16.792Z,97090.74
2018-12-24T15:59:46.971Z,97113.45
2018-12-24T16:02:16.715Z,97123.32
2018-12-24T16:04:46.105Z,97122.78
2018-12-24T16:07:15.812Z,97120.09
2018-12-24T16:09:45.370Z,97127.31
2018-12-24T16:12:15.184Z,97127.82
2018-12-24T16:14:44.820Z,97134.78
2018-12-24T16:17:14.902Z,97141.02
2018-12-24T16:19:44.629Z,97139.05
2018-12-24T16:22:14.426Z,97142.96
2018-12-24T16:24:43.911Z,97136.76
2018-12-24T16:27:13.785Z,97125.44
2018-12-24T16:29:43.539Z,97105.92
2018-12-24T16:32:14.660Z,97093.68
2018-12-24T16:34:44.420Z,97086.20
2018-12-24T16:37:17.538Z,97072.94
2018-12-24T16:39:47.494Z,97072.20
2018-12-24T16:42:17.448Z,97073.08
2018-12-24T16:44:47.250Z,97069.80
2018-12-24T16:47:17.022Z,97080.21
2018-12-24T16:49:46.818Z,97092.16
2018-12-24T16:52:16.686Z,97104.94
2018-12-24T16:54:46.382Z,97114.88
2018-12-24T16:57:15.999Z,97136.41
2018-12-24T16:59:45.679Z,97155.63
2018-12-24T17:02:15.319Z,97163.57
2018-12-24T17:04:44.918Z,97187.95
2018-12-24T17:07:14.663Z,97212.42
2018-12-24T17:09:44.303Z,97279.55
2018-12-24T17:12:14.101Z,97337.75
2018-12-24T17:14:43.768Z,97373.39
2018-12-24T17:17:13.719Z,97432.52
2018-12-24T17:19:43.454Z,97480.91
2018-12-24T17:22:13.202Z,97496.54
2018-12-24T17:24:43.155Z,97542.20
2018-12-24T17:27:12.902Z,97542.16
2018-12-24T17:29:42.490Z,97530.69
2018-12-24T17:32:12.302Z,97549.02
2018-12-24T17:34:41.725Z,97553.96
2018-12-24T17:37:12.399Z,97548.89
2018-12-24T17:39:43.310Z,97539.41
2018-12-24T17:42:13.130Z,97527.23
2018-12-24T17:44:42.746Z,97512.94
2018-12-24T17:47:16.373Z,97519.13
2018-12-24T17:49:45.007Z,97523.49
2018-12-24T17:52:14.778Z,97526.55
2018-12-24T17:54:44.534Z,97534.44
2018-12-24T17:57:14.970Z,97533.69
2018-12-24T17:59:45.123Z,97549.03
2018-12-24T18:02:14.858Z,97556.09
2018-12-24T18:04:44.551Z,97560.15
2018-12-24T18:07:14.310Z,97571.15
2018-12-24T18:09:44.163Z,97575.28
2018-12-24T18:12:13.935Z,97605.30
2018-12-24T18:14:43.346Z,97610.73
2018-12-24T18:17:13.025Z,97636.30
2018-12-24T18:19:42.858Z,97643.36
2018-12-24T18:22:12.603Z,97655.92
2018-12-24T18:24:42.046Z,97651.48
2018-12-24T18:27:11.572Z,97659.22
2018-12-24T18:29:41.101Z,97675.89
2018-12-24T18:32:10.687Z,97658.88
2018-12-24T18:34:40.504Z,97656.70
2018-12-24T18:37:10.375Z,97657.05
2018-12-24T18:39:39.804Z,97655.34
2018-12-24T18:42:09.413Z,97652.30
2018-12-24T18:44:39.019Z,97655.78
2018-12-24T18:47:08.850Z,97657.05
2018-12-24T18:49:38.437Z,97660.39
2018-12-24T18:52:08.334Z,97662.92
2018-12-24T18:54:37.988Z,97661.17
2018-12-24T18:57:07.649Z,97671.28
2018-12-24T18:59:37.267Z,97669.19
2018-12-24T19:02:07.038Z,97687.55
2018-12-24T19:04:38.666Z,97678.80
2018-12-24T19:07:08.167Z,97696.39
2018-12-24T19:09:37.849Z,97691.50
2018-12-24T19:12:07.618Z,97682.77
2018-12-24T19:14:37.289Z,97676.23
2018-12-24T19:17:06.837Z,97686.59
2018-12-24T19:19:36.571Z,97685.77
2018-12-24T19:22:06.396Z,97690.90
2018-12-24T19:24:35.932Z,97701.42
2018-12-24T19:27:05.543Z,97694.90
2018-12-24T19:29:38.206Z,97700.52
2018-12-24T19:32:08.120Z,97708.26
2018-12-24T19:34:37.844Z,97720.09
2018-12-24T19:37:07.668Z,97720.05
2018-12-24T19:39:37.488Z,97725.97
2018-12-24T19:42:07.551Z,97726.97
2018-12-24T19:44:37.719Z,97723.41
2018-12-24T19:47:07.581Z,97719.57
2018-12-24T19:49:37.143Z,97718.27
2018-12-24T19:52:06.860Z,97731.84
2018-12-24T19:54:36.454Z,97736.27
2018-12-24T19:57:06.358Z,97727.93
2018-12-24T19:59:36.083Z,97719.78
2018-12-24T20:02:05.772Z,97719.70
2018-12-24T20:04:35.613Z,97724.92
2018-12-24T20:07:05.386Z,97738.37
2018-12-24T20:09:35.017Z,97739.67
2018-12-24T20:12:06.339Z,97748.02
2018-12-24T20:14:36.193Z,97749.38
2018-12-24T20:17:05.881Z,97738.68
2018-12-24T20:19:35.696Z,97749.33
2018-12-24T20:22:05.343Z,97755.34
2018-12-24T20:24:35.282Z,97759.61
2018-12-24T20:27:04.908Z,97760.52
2018-12-24T20:29:34.624Z,97748.42
2018-12-24T20:32:04.562Z,97766.77
2018-12-24T20:34:34.089Z,97778.05
2018-12-24T20:37:03.540Z,97793.83
2018-12-24T20:39:34.179Z,97796.05
2018-12-24T20:42:05.317Z,97797.27
2018-12-24T20:44:35.361Z,97802.05
2018-12-24T20:47:05.541Z,97806.02
2018-12-24T20:49:36.424Z,97801.23
2018-12-24T20:52:06.164Z,97818.12
2018-12-24T20:54:35.616Z,97824.41
2018-12-24T20:57:05.051Z,97825.78
2018-12-24T20:59:34.709Z,97820.64
2018-12-24T21:02:04.174Z,97834.59
2018-12-24T21:04:33.685Z,97838.98
2018-12-24T21:07:03.205Z,97827.71
2018-12-24T21:09:32.848Z,97826.41
2018-12-24T21:12:02.571Z,97815.46
2018-12-24T21:14:32.393Z,97821.11
2018-12-24T21:17:01.923Z,97835.97
2018-12-24T21:19:31.517Z,97825.03
2018-12-24T21:22:01.159Z,97848.59
2018-12-24T21:24:30.693Z,97846.56
2018-12-24T21:27:00.435Z,97844.42
2018-12-24T21:29:30.027Z,97831.41
2018-12-24T21:31:59.776Z,97835.73
2018-12-24T21:34:29.297Z,97841.02
2018-12-24T21:36:59.077Z,97844.09
2018-12-24T21:39:28.805Z,97848.01
2018-12-24T21:41:58.248Z,97846.30
2018-12-24T21:44:28.072Z,97867.20
2018-12-24T21:46:57.865Z,97868.58
2018-12-24T21:49:27.581Z,97883.07
2018-12-24T21:51:57.294Z,97886.52
2018-12-24T21:54:26.806Z,97899.55
2018-12-24T21:56:56.397Z,97909.22
2018-12-24T21:59:26.169Z,97931.77
2018-12-24T22:01:55.918Z,97942.66
2018-12-24T22:04:25.516Z,97957.75
2018-12-24T22:06:55.145Z,97962.47
2018-12-24T22:09:24.677Z,97963.41
2018-12-24T22:11:54.199Z,97963.94
2018-12-24T22:14:23.846Z,97968.34
2018-12-24T22:16:53.447Z,97963.16
2018-12-24T22:19:23.226Z,97965.33
2018-12-24T22:21:52.964Z,97970.67
2018-12-24T22:24:22.720Z,97972.47
2018-12-24T22:26:52.285Z,97967.34
2018-12-24T22:29:22.147Z,97963.52
2018-12-24T22:31:51.845Z,97951.05
2018-12-24T22:34:21.567Z,97954.98
2018-12-24T22:36:51.365Z,97949.83
2018-12-24T22:39:20.915Z,97943.72
2018-12-24T22:41:50.667Z,97941.56
2018-12-24T22:44:20.144Z,97947.25
2018-12-24T22:46:49.607Z,97943.34
2018-12-24T22:49:19.001Z,97947.77
2018-12-24T22:51:48.604Z,97951.19
2018-12-24T22:54:18.235Z,97959.88
2018-12-24T22:56:48.055Z,97972.47
2018-12-24T22:59:17.826Z,97971.58
2018-12-24T23:01:47.510Z,97977.25
2018-12-24T23:04:16.976Z,98002.05
2018-12-24T23:06:46.759Z,98004.66
2018-12-24T23:09:16.404Z,98002.45
2018-12-24T23:11:45.842Z,98006.39
2018-12-24T23:14:15.366Z,98012.02
2018-12-24T23:16:44.868Z,98025.97
2018-12-24T23:19:14.491Z,98017.82
2018-12-24T23:21:43.944Z,98019.58
2018-12-24T23:24:13.629Z,98011.74
2018-12-24T23:26:43.351Z,98004.90
2018-12-24T23:29:12.909Z,97997.48
2018-12-24T23:31:42.582Z,97983.61
2018-12-24T23:34:12.438Z,97986.22
2018-12-24T23:36:42.202Z,97997.45
2018-12-24T23:39:11.830Z,98002.19
2018-12-24T23:41:41.458Z,98015.67
2018-12-24T23:44:11.350Z,98007.50
2018-12-24T23:46:40.846Z,98012.26
2018-12-24T23:49:10.274Z,98015.73
2018-12-24T23:51:39.941Z,98026.23
2018-12-24T23:54:09.530Z,98040.62
2018-12-24T23:56:39.259Z,98039.19
2018-12-24T23:59:08.880Z,98044.03
